sensor_id;sensor_type;location;lat;lon;timestamp;pressure;altitude;pressure_sealevel;temperature;humidity
12594;BME280;6362;50.208;9.182;2022-12-31T00:01:14;99290.28;;;12.66;77.60
12594;BME280;6362;50.208;9.182;2022-12-31T00:03:41;99301.72;;;12.61;78.12
12594;BME280;6362;50.208;9.182;2022-12-31T00:06:16;99294.47;;;12.72;77.49
12594;BME280;6362;50.208;9.182;2022-12-31T00:08:43;99291.81;;;12.74;77.15
12594;BME280;6362;50.208;9.182;2022-12-31T00:11:08;99297.78;;;12.79;77.10
12594;BME280;6362;50.208;9.182;2022-12-31T00:13:34;99313.38;;;12.80;77.44
12594;BME280;6362;50.208;9.182;2022-12-31T00:16:11;99316.94;;;12.78;77.46
12594;BME280;6362;50.208;9.182;2022-12-31T00:18:37;99321.22;;;12.80;77.55
12594;BME280;6362;50.208;9.182;2022-12-31T00:21:07;99325.53;;;12.81;77.65
12594;BME280;6362;50.208;9.182;2022-12-31T00:23:33;99325.47;;;12.84;77.41
12594;BME280;6362;50.208;9.182;2022-12-31T00:26:12;99315.78;;;12.88;77.12
12594;BME280;6362;50.208;9.182;2022-12-31T00:28:39;99315.94;;;12.82;77.64
12594;BME280;6362;50.208;9.182;2022-12-31T00:31:07;99312.16;;;12.93;76.89
12594;BME280;6362;50.208;9.182;2022-12-31T00:33:32;99307.81;;;12.92;77.15
12594;BME280;6362;50.208;9.182;2022-12-31T00:36:09;99303.44;;;12.94;76.84
12594;BME280;6362;50.208;9.182;2022-12-31T00:38:35;99309.22;;;13.06;76.38
12594;BME280;6362;50.208;9.182;2022-12-31T00:41:01;99317.97;;;13.05;76.55
12594;BME280;6362;50.208;9.182;2022-12-31T00:43:27;99313.53;;;13.07;76.22
12594;BME280;6362;50.208;9.182;2022-12-31T00:45:52;99305.59;;;13.10;76.10
12594;BME280;6362;50.208;9.182;2022-12-31T00:48:18;99293.38;;;13.12;75.81
12594;BME280;6362;50.208;9.182;2022-12-31T00:50:44;99302.97;;;13.11;76.34
12594;BME280;6362;50.208;9.182;2022-12-31T00:53:09;99309.97;;;13.09;76.21
12594;BME280;6362;50.208;9.182;2022-12-31T00:55:34;99310.94;;;13.07;76.45
12594;BME280;6362;50.208;9.182;2022-12-31T00:58:00;99323.03;;;13.09;76.26
12594;BME280;6362;50.208;9.182;2022-12-31T01:00:25;99331.59;;;13.14;75.94
12594;BME280;6362;50.208;9.182;2022-12-31T01:02:51;99328.34;;;13.06;76.44
12594;BME280;6362;50.208;9.182;2022-12-31T01:05:16;99326.50;;;13.10;76.55
12594;BME280;6362;50.208;9.182;2022-12-31T01:07:42;99322.84;;;13.17;76.02
12594;BME280;6362;50.208;9.182;2022-12-31T01:10:07;99323.69;;;13.17;75.93
12594;BME280;6362;50.208;9.182;2022-12-31T01:12:33;99330.66;;;13.17;76.11
12594;BME280;6362;50.208;9.182;2022-12-31T01:14:58;99336.69;;;13.19;75.86
12594;BME280;6362;50.208;9.182;2022-12-31T01:17:24;99321.94;;;13.18;75.72
12594;BME280;6362;50.208;9.182;2022-12-31T01:19:49;99321.97;;;13.16;75.94
12594;BME280;6362;50.208;9.182;2022-12-31T01:22:15;99336.66;;;13.22;75.94
12594;BME280;6362;50.208;9.182;2022-12-31T01:24:40;99336.69;;;13.19;75.99
12594;BME280;6362;50.208;9.182;2022-12-31T01:27:05;99335.75;;;13.23;76.10
12594;BME280;6362;50.208;9.182;2022-12-31T01:29:31;99335.66;;;13.26;75.52
12594;BME280;6362;50.208;9.182;2022-12-31T01:31:56;99337.41;;;13.26;75.83
12594;BME280;6362;50.208;9.182;2022-12-31T01:34:22;99339.03;;;13.30;75.73
12594;BME280;6362;50.208;9.182;2022-12-31T01:36:47;99347.66;;;13.33;75.33
12594;BME280;6362;50.208;9.182;2022-12-31T01:39:13;99361.50;;;13.35;75.49
12594;BME280;6362;50.208;9.182;2022-12-31T01:41:42;99351.06;;;13.35;75.73
12594;BME280;6362;50.208;9.182;2022-12-31T01:52:08;99347.47;;;13.39;75.76
12594;BME280;6362;50.208;9.182;2022-12-31T01:54:39;99340.25;;;13.47;75.53
12594;BME280;6362;50.208;9.182;2022-12-31T01:57:08;99344.69;;;13.45;75.37
12594;BME280;6362;50.208;9.182;2022-12-31T01:59:34;99365.63;;;13.44;75.67
12594;BME280;6362;50.208;9.182;2022-12-31T02:02:00;99359.47;;;13.46;75.35
12594;BME280;6362;50.208;9.182;2022-12-31T02:04:26;99363.72;;;13.51;75.42
12594;BME280;6362;50.208;9.182;2022-12-31T02:06:56;99347.91;;;13.54;75.26
12594;BME280;6362;50.208;9.182;2022-12-31T02:09:22;99364.59;;;13.50;75.57
12594;BME280;6362;50.208;9.182;2022-12-31T02:11:49;99370.53;;;13.55;75.50
12594;BME280;6362;50.208;9.182;2022-12-31T02:25:18;99335.38;;;13.66;74.62
12594;BME280;6362;50.208;9.182;2022-12-31T02:28:05;99326.34;;;13.77;73.95
12594;BME280;6362;50.208;9.182;2022-12-31T02:30:39;99348.13;;;13.77;73.95
12594;BME280;6362;50.208;9.182;2022-12-31T02:33:27;99357.56;;;13.81;73.47
12594;BME280;6362;50.208;9.182;2022-12-31T02:35:57;99352.34;;;13.81;73.21
12594;BME280;6362;50.208;9.182;2022-12-31T02:38:31;99339.00;;;13.90;72.90
12594;BME280;6362;50.208;9.182;2022-12-31T02:40:57;99363.44;;;13.89;73.31
12594;BME280;6362;50.208;9.182;2022-12-31T02:43:23;99356.50;;;13.88;73.17
12594;BME280;6362;50.208;9.182;2022-12-31T02:48:39;99355.72;;;13.85;72.85
12594;BME280;6362;50.208;9.182;2022-12-31T02:52:36;99368.56;;;13.92;72.68
12594;BME280;6362;50.208;9.182;2022-12-31T02:54:43;99367.69;;;13.92;72.59
12594;BME280;6362;50.208;9.182;2022-12-31T02:57:26;99365.41;;;13.81;72.86
12594;BME280;6362;50.208;9.182;2022-12-31T03:00:07;99352.97;;;13.89;72.50
12594;BME280;6362;50.208;9.182;2022-12-31T03:02:52;99363.44;;;13.89;72.33
12594;BME280;6362;50.208;9.182;2022-12-31T03:05:22;99364.09;;;13.96;71.96
12594;BME280;6362;50.208;9.182;2022-12-31T03:07:48;99361.38;;;13.99;71.67
12594;BME280;6362;50.208;9.182;2022-12-31T03:10:14;99374.50;;;13.97;71.57
12594;BME280;6362;50.208;9.182;2022-12-31T03:12:42;99376.38;;;13.94;71.80
12594;BME280;6362;50.208;9.182;2022-12-31T03:15:19;99375.34;;;13.98;71.70
12594;BME280;6362;50.208;9.182;2022-12-31T03:20:11;99348.34;;;13.97;71.71
12594;BME280;6362;50.208;9.182;2022-12-31T03:22:55;99354.50;;;13.96;71.78
12594;BME280;6362;50.208;9.182;2022-12-31T03:25:21;99356.00;;;14.04;71.38
12594;BME280;6362;50.208;9.182;2022-12-31T03:28:21;99366.59;;;14.00;71.47
12594;BME280;6362;50.208;9.182;2022-12-31T03:30:50;99353.66;;;13.96;71.60
12594;BME280;6362;50.208;9.182;2022-12-31T03:33:17;99368.53;;;13.94;71.75
12594;BME280;6362;50.208;9.182;2022-12-31T03:35:44;99357.91;;;13.98;71.66
12594;BME280;6362;50.208;9.182;2022-12-31T03:38:10;99365.94;;;13.92;71.89
12594;BME280;6362;50.208;9.182;2022-12-31T03:40:39;99358.88;;;13.96;71.51
12594;BME280;6362;50.208;9.182;2022-12-31T03:43:05;99367.63;;;13.95;71.55
12594;BME280;6362;50.208;9.182;2022-12-31T03:45:30;99375.28;;;14.01;71.24
12594;BME280;6362;50.208;9.182;2022-12-31T03:47:56;99376.13;;;14.02;71.36
12594;BME280;6362;50.208;9.182;2022-12-31T03:50:21;99382.47;;;13.94;71.56
12594;BME280;6362;50.208;9.182;2022-12-31T03:52:47;99379.00;;;13.92;71.77
12594;BME280;6362;50.208;9.182;2022-12-31T03:55:13;99401.38;;;14.03;71.18
12594;BME280;6362;50.208;9.182;2022-12-31T03:57:39;99390.78;;;14.07;71.08
12594;BME280;6362;50.208;9.182;2022-12-31T04:00:06;99405.75;;;14.02;71.20
12594;BME280;6362;50.208;9.182;2022-12-31T04:02:32;99414.25;;;14.09;71.04
12594;BME280;6362;50.208;9.182;2022-12-31T04:04:57;99416.06;;;14.07;71.05
12594;BME280;6362;50.208;9.182;2022-12-31T04:07:23;99410.91;;;14.05;71.38
12594;BME280;6362;50.208;9.182;2022-12-31T04:09:48;99401.09;;;14.12;71.13
12594;BME280;6362;50.208;9.182;2022-12-31T04:12:14;99406.59;;;14.03;71.41
12594;BME280;6362;50.208;9.182;2022-12-31T04:14:39;99412.41;;;14.12;71.05
12594;BME280;6362;50.208;9.182;2022-12-31T04:17:05;99419.47;;;14.09;71.05
12594;BME280;6362;50.208;9.182;2022-12-31T04:19:30;99418.56;;;14.10;71.30
12594;BME280;6362;50.208;9.182;2022-12-31T04:21:56;99415.09;;;14.11;71.20
12594;BME280;6362;50.208;9.182;2022-12-31T04:24:21;99414.13;;;14.13;71.19
12594;BME280;6362;50.208;9.182;2022-12-31T04:26:47;99400.13;;;14.14;71.10
12594;BME280;6362;50.208;9.182;2022-12-31T04:29:12;99401.84;;;14.15;71.27
12594;BME280;6362;50.208;9.182;2022-12-31T04:31:37;99399.28;;;14.14;71.40
12594;BME280;6362;50.208;9.182;2022-12-31T04:34:03;99413.03;;;14.20;71.25
12594;BME280;6362;50.208;9.182;2022-12-31T04:36:28;99415.56;;;14.23;71.07
12594;BME280;6362;50.208;9.182;2022-12-31T04:38:54;99413.88;;;14.21;71.06
12594;BME280;6362;50.208;9.182;2022-12-31T04:41:20;99416.84;;;14.10;71.44
12594;BME280;6362;50.208;9.182;2022-12-31T04:43:48;99420.78;;;14.23;71.02
12594;BME280;6362;50.208;9.182;2022-12-31T04:46:15;99433.91;;;14.22;71.35
12594;BME280;6362;50.208;9.182;2022-12-31T04:48:41;99434.78;;;14.21;71.25
12594;BME280;6362;50.208;9.182;2022-12-31T04:51:06;99439.03;;;14.25;71.21
12594;BME280;6362;50.208;9.182;2022-12-31T04:53:32;99430.22;;;14.29;71.09
12594;BME280;6362;50.208;9.182;2022-12-31T04:55:57;99439.09;;;14.23;71.25
12594;BME280;6362;50.208;9.182;2022-12-31T04:58:23;99454.59;;;14.30;71.05
12594;BME280;6362;50.208;9.182;2022-12-31T05:00:50;99445.09;;;14.27;70.99
12594;BME280;6362;50.208;9.182;2022-12-31T05:03:17;99445.09;;;14.27;70.99
12594;BME280;6362;50.208;9.182;2022-12-31T05:05:43;99447.59;;;14.30;71.12
12594;BME280;6362;50.208;9.182;2022-12-31T05:08:12;99454.66;;;14.28;70.94
12594;BME280;6362;50.208;9.182;2022-12-31T05:10:45;99464.28;;;14.26;70.98
12594;BME280;6362;50.208;9.182;2022-12-31T05:13:11;99445.84;;;14.31;70.94
12594;BME280;6362;50.208;9.182;2022-12-31T05:15:38;99455.13;;;14.41;70.46
12594;BME280;6362;50.208;9.182;2022-12-31T05:18:04;99445.44;;;14.44;70.30
12594;BME280;6362;50.208;9.182;2022-12-31T05:20:29;99447.34;;;14.39;70.42
12594;BME280;6362;50.208;9.182;2022-12-31T05:22:55;99450.69;;;14.43;70.28
12594;BME280;6362;50.208;9.182;2022-12-31T05:25:20;99447.16;;;14.45;70.26
12594;BME280;6362;50.208;9.182;2022-12-31T05:27:45;99442.53;;;14.53;69.93
12594;BME280;6362;50.208;9.182;2022-12-31T05:30:11;99433.75;;;14.56;69.71
12594;BME280;6362;50.208;9.182;2022-12-31T05:32:37;99443.38;;;14.56;70.12
12594;BME280;6362;50.208;9.182;2022-12-31T05:35:03;99430.22;;;14.57;69.79
12594;BME280;6362;50.208;9.182;2022-12-31T05:37:29;99433.75;;;14.56;70.16
12594;BME280;6362;50.208;9.182;2022-12-31T05:39:56;99444.03;;;14.62;69.86
12594;BME280;6362;50.208;9.182;2022-12-31T05:42:21;99446.00;;;14.56;70.43
12594;BME280;6362;50.208;9.182;2022-12-31T05:44:47;99438.84;;;14.61;69.97
12594;BME280;6362;50.208;9.182;2022-12-31T05:47:12;99444.03;;;14.62;70.03
12594;BME280;6362;50.208;9.182;2022-12-31T05:49:38;99442.41;;;14.58;70.12
12594;BME280;6362;50.208;9.182;2022-12-31T05:52:03;99435.22;;;14.65;69.64
12594;BME280;6362;50.208;9.182;2022-12-31T05:54:29;99443.19;;;14.62;70.23
12594;BME280;6362;50.208;9.182;2022-12-31T05:56:54;99433.56;;;14.62;70.19
12594;BME280;6362;50.208;9.182;2022-12-31T05:59:20;99448.22;;;14.68;69.93
12594;BME280;6362;50.208;9.182;2022-12-31T06:01:45;99440.41;;;14.66;70.12
12594;BME280;6362;50.208;9.182;2022-12-31T06:04:11;99439.50;;;14.67;70.16
12594;BME280;6362;50.208;9.182;2022-12-31T06:06:36;99438.44;;;14.73;69.71
12594;BME280;6362;50.208;9.182;2022-12-31T06:09:01;99448.09;;;14.71;70.09
12594;BME280;6362;50.208;9.182;2022-12-31T06:11:27;99448.88;;;14.74;69.76
12594;BME280;6362;50.208;9.182;2022-12-31T06:13:52;99448.97;;;14.71;70.08
12594;BME280;6362;50.208;9.182;2022-12-31T06:16:18;99452.47;;;14.70;70.32
12594;BME280;6362;50.208;9.182;2022-12-31T06:18:46;99458.06;;;14.86;69.54
12594;BME280;6362;50.208;9.182;2022-12-31T06:21:11;99457.16;;;14.87;69.17
12594;BME280;6362;50.208;9.182;2022-12-31T06:23:39;99453.59;;;14.90;69.20
12594;BME280;6362;50.208;9.182;2022-12-31T06:26:04;99466.59;;;14.93;69.46
12594;BME280;6362;50.208;9.182;2022-12-31T06:28:31;99464.09;;;14.90;69.43
12594;BME280;6362;50.208;9.182;2022-12-31T06:31:01;99472.16;;;14.82;69.77
12594;BME280;6362;50.208;9.182;2022-12-31T06:33:27;99474.63;;;14.88;69.35
12594;BME280;6362;50.208;9.182;2022-12-31T06:35:56;99476.34;;;14.88;69.18
12594;BME280;6362;50.208;9.182;2022-12-31T06:38:23;99480.50;;;14.95;68.98
12594;BME280;6362;50.208;9.182;2022-12-31T06:40:49;99484.88;;;14.94;69.16
12594;BME280;6362;50.208;9.182;2022-12-31T06:43:14;99490.00;;;14.97;68.85
12594;BME280;6362;50.208;9.182;2022-12-31T06:45:39;99501.97;;;15.04;68.78
12594;BME280;6362;50.208;9.182;2022-12-31T06:48:05;99499.34;;;15.06;68.48
12594;BME280;6362;50.208;9.182;2022-12-31T06:50:31;99502.91;;;15.03;68.49
12594;BME280;6362;50.208;9.182;2022-12-31T06:52:57;99505.38;;;15.08;68.08
12594;BME280;6362;50.208;9.182;2022-12-31T06:55:22;99499.91;;;15.16;68.09
12594;BME280;6362;50.208;9.182;2022-12-31T06:57:48;99495.66;;;15.12;68.20
12594;BME280;6362;50.208;9.182;2022-12-31T07:00:14;99513.09;;;15.13;68.08
12594;BME280;6362;50.208;9.182;2022-12-31T07:05:47;99524.22;;;15.19;67.99
12594;BME280;6362;50.208;9.182;2022-12-31T07:14:08;99520.78;;;15.17;68.01
12594;BME280;6362;50.208;9.182;2022-12-31T07:19:22;99517.25;;;15.18;68.02
12594;BME280;6362;50.208;9.182;2022-12-31T07:21:52;99516.34;;;15.19;68.08
12594;BME280;6362;50.208;9.182;2022-12-31T07:24:18;99510.19;;;15.20;67.94
12594;BME280;6362;50.208;9.182;2022-12-31T07:29:41;99526.69;;;15.24;67.64
12594;BME280;6362;50.208;9.182;2022-12-31T07:35:28;99544.06;;;15.26;67.63
12594;BME280;6362;50.208;9.182;2022-12-31T07:46:58;99536.00;;;15.32;67.40
12594;BME280;6362;50.208;9.182;2022-12-31T07:49:25;99529.22;;;15.27;67.51
12594;BME280;6362;50.208;9.182;2022-12-31T07:51:51;99537.72;;;15.34;67.38
12594;BME280;6362;50.208;9.182;2022-12-31T07:54:17;99547.34;;;15.33;67.48
12594;BME280;6362;50.208;9.182;2022-12-31T07:56:43;99544.75;;;15.31;67.52
12594;BME280;6362;50.208;9.182;2022-12-31T07:59:26;99556.09;;;15.32;67.48
12594;BME280;6362;50.208;9.182;2022-12-31T08:07:34;99551.06;;;15.26;67.52
12594;BME280;6362;50.208;9.182;2022-12-31T08:10:08;99549.91;;;15.35;67.27
12594;BME280;6362;50.208;9.182;2022-12-31T08:12:35;99564.84;;;15.32;67.24
12594;BME280;6362;50.208;9.182;2022-12-31T08:15:02;99557.00;;;15.31;67.15
12594;BME280;6362;50.208;9.182;2022-12-31T08:17:36;99584.88;;;15.34;66.82
12594;BME280;6362;50.208;9.182;2022-12-31T08:20:02;99571.06;;;15.28;67.15
12594;BME280;6362;50.208;9.182;2022-12-31T08:25:34;99578.59;;;15.39;66.81
12594;BME280;6362;50.208;9.182;2022-12-31T08:28:06;99571.63;;;15.38;66.80
12594;BME280;6362;50.208;9.182;2022-12-31T08:30:38;99589.81;;;15.43;66.67
12594;BME280;6362;50.208;9.182;2022-12-31T08:38:49;99591.78;;;15.36;66.43
12594;BME280;6362;50.208;9.182;2022-12-31T08:41:28;99586.44;;;15.39;66.61
12594;BME280;6362;50.208;9.182;2022-12-31T08:47:16;99614.66;;;15.31;66.66
12594;BME280;6362;50.208;9.182;2022-12-31T08:49:46;99601.53;;;15.32;66.34
12594;BME280;6362;50.208;9.182;2022-12-31T08:52:14;99600.59;;;15.34;66.46
12594;BME280;6362;50.208;9.182;2022-12-31T08:54:40;99594.41;;;15.36;66.05
12594;BME280;6362;50.208;9.182;2022-12-31T08:57:23;99605.88;;;15.32;66.40
12594;BME280;6362;50.208;9.182;2022-12-31T09:00:03;99601.53;;;15.32;66.38
12594;BME280;6362;50.208;9.182;2022-12-31T09:05:53;99602.41;;;15.31;66.26
12594;BME280;6362;50.208;9.182;2022-12-31T09:11:26;99604.09;;;15.34;65.84
12594;BME280;6362;50.208;9.182;2022-12-31T09:14:16;99611.22;;;15.29;66.03
12594;BME280;6362;50.208;9.182;2022-12-31T09:19:12;99612.09;;;15.29;65.99
12594;BME280;6362;50.208;9.182;2022-12-31T09:21:41;99607.03;;;15.23;66.25
12594;BME280;6362;50.208;9.182;2022-12-31T09:24:11;99618.19;;;15.30;66.37
12594;BME280;6362;50.208;9.182;2022-12-31T09:39:58;99618.88;;;15.35;65.56
12594;BME280;6362;50.208;9.182;2022-12-31T09:43:24;99625.91;;;15.35;65.75
12594;BME280;6362;50.208;9.182;2022-12-31T09:56:24;99638.47;;;15.51;64.85
12594;BME280;6362;50.208;9.182;2022-12-31T09:59:01;99642.50;;;15.62;64.52
12594;BME280;6362;50.208;9.182;2022-12-31T10:20:58;99642.50;;;16.86;60.15
12594;BME280;6362;50.208;9.182;2022-12-31T10:34:52;99636.00;;;18.64;54.69
12594;BME280;6362;50.208;9.182;2022-12-31T10:37:23;99641.41;;;19.01;53.81
12594;BME280;6362;50.208;9.182;2022-12-31T11:20:54;99674.38;;;18.71;53.66
12594;BME280;6362;50.208;9.182;2022-12-31T11:41:49;99653.25;;;17.48;57.03
12594;BME280;6362;50.208;9.182;2022-12-31T11:44:38;99662.81;;;17.28;57.70
12594;BME280;6362;50.208;9.182;2022-12-31T11:50:34;99655.38;;;17.60;56.90
12594;BME280;6362;50.208;9.182;2022-12-31T11:58:33;99652.91;;;18.19;55.14
12594;BME280;6362;50.208;9.182;2022-12-31T12:01:10;99641.59;;;18.38;55.18
12594;BME280;6362;50.208;9.182;2022-12-31T12:03:38;99643.41;;;18.56;54.42
12594;BME280;6362;50.208;9.182;2022-12-31T12:06:12;99638.81;;;18.60;54.27
12594;BME280;6362;50.208;9.182;2022-12-31T12:08:39;99635.41;;;18.78;53.30
12594;BME280;6362;50.208;9.182;2022-12-31T12:11:12;99636.75;;;18.87;53.43
12594;BME280;6362;50.208;9.182;2022-12-31T12:13:39;99642.38;;;18.59;53.71
12594;BME280;6362;50.208;9.182;2022-12-31T12:16:06;99638.56;;;18.27;54.28
12594;BME280;6362;50.208;9.182;2022-12-31T12:21:19;99626.53;;;18.01;55.21
12594;BME280;6362;50.208;9.182;2022-12-31T12:26:38;99622.50;;;18.33;54.77
12594;BME280;6362;50.208;9.182;2022-12-31T12:29:14;99644.53;;;18.51;54.21
12594;BME280;6362;50.208;9.182;2022-12-31T12:31:40;99623.00;;;18.41;54.26
12594;BME280;6362;50.208;9.182;2022-12-31T12:34:22;99621.50;;;18.35;54.64
12594;BME280;6362;50.208;9.182;2022-12-31T12:36:47;99626.69;;;18.37;54.34
12594;BME280;6362;50.208;9.182;2022-12-31T12:39:19;99624.16;;;18.54;53.63
12594;BME280;6362;50.208;9.182;2022-12-31T12:41:45;99620.31;;;18.42;53.52
12594;BME280;6362;50.208;9.182;2022-12-31T12:44:14;99617.09;;;18.36;53.80
12594;BME280;6362;50.208;9.182;2022-12-31T12:46:46;99621.59;;;18.34;53.61
12594;BME280;6362;50.208;9.182;2022-12-31T12:49:22;99623.56;;;18.29;53.86
12594;BME280;6362;50.208;9.182;2022-12-31T12:57:04;99630.72;;;18.64;53.33
12594;BME280;6362;50.208;9.182;2022-12-31T13:04:59;99609.94;;;20.04;49.38
12594;BME280;6362;50.208;9.182;2022-12-31T13:07:50;99597.59;;;20.21;48.63
12594;BME280;6362;50.208;9.182;2022-12-31T13:22:11;99630.75;;;20.61;47.65
12594;BME280;6362;50.208;9.182;2022-12-31T13:24:43;99634.38;;;20.59;48.18
12594;BME280;6362;50.208;9.182;2022-12-31T13:29:51;99629.34;;;20.54;48.24
12594;BME280;6362;50.208;9.182;2022-12-31T13:32:28;99625.00;;;19.85;49.92
12594;BME280;6362;50.208;9.182;2022-12-31T13:35:00;99604.47;;;19.56;51.08
12594;BME280;6362;50.208;9.182;2022-12-31T13:37:36;99605.81;;;19.64;50.72
12594;BME280;6362;50.208;9.182;2022-12-31T13:40:20;99604.72;;;19.86;50.36
12594;BME280;6362;50.208;9.182;2022-12-31T13:42:54;99613.34;;;19.89;49.94
12594;BME280;6362;50.208;9.182;2022-12-31T13:45:26;99608.44;;;19.64;50.39
12594;BME280;6362;50.208;9.182;2022-12-31T13:47:59;99599.91;;;19.76;50.78
12594;BME280;6362;50.208;9.182;2022-12-31T13:51:00;99601.19;;;19.50;50.88
12594;BME280;6362;50.208;9.182;2022-12-31T13:56:13;99603.72;;;19.88;50.16
12594;BME280;6362;50.208;9.182;2022-12-31T13:58:45;99589.47;;;20.08;49.26
12594;BME280;6362;50.208;9.182;2022-12-31T14:03:53;99604.63;;;19.87;49.65
12594;BME280;6362;50.208;9.182;2022-12-31T14:08:57;99587.66;;;19.03;52.26
12594;BME280;6362;50.208;9.182;2022-12-31T14:14:45;99607.13;;;18.42;53.82
12594;BME280;6362;50.208;9.182;2022-12-31T14:17:47;99612.84;;;18.13;54.88
12594;BME280;6362;50.208;9.182;2022-12-31T14:20:47;99602.72;;;17.83;55.09
12594;BME280;6362;50.208;9.182;2022-12-31T14:25:48;99594.69;;;17.44;56.52
12594;BME280;6362;50.208;9.182;2022-12-31T14:28:24;99617.72;;;17.37;56.58
12594;BME280;6362;50.208;9.182;2022-12-31T14:30:56;99633.38;;;17.19;57.35
12594;BME280;6362;50.208;9.182;2022-12-31T14:33:54;99642.28;;;17.14;57.32
12594;BME280;6362;50.208;9.182;2022-12-31T14:36:57;99651.59;;;17.01;57.74
12594;BME280;6362;50.208;9.182;2022-12-31T14:39:41;99649.44;;;16.89;58.34
12594;BME280;6362;50.208;9.182;2022-12-31T14:50:32;99654.84;;;16.59;58.94
12594;BME280;6362;50.208;9.182;2022-12-31T14:55:31;99646.47;;;16.50;59.21
12594;BME280;6362;50.208;9.182;2022-12-31T14:57:59;99646.91;;;16.37;59.48
12594;BME280;6362;50.208;9.182;2022-12-31T15:00:38;99646.31;;;16.29;59.98
12594;BME280;6362;50.208;9.182;2022-12-31T15:05:50;99653.94;;;16.12;60.36
12594;BME280;6362;50.208;9.182;2022-12-31T15:08:30;99653.63;;;16.21;59.84
12594;BME280;6362;50.208;9.182;2022-12-31T15:11:14;99657.88;;;15.99;60.21
12594;BME280;6362;50.208;9.182;2022-12-31T15:24:22;99656.28;;;15.95;59.59
12594;BME280;6362;50.208;9.182;2022-12-31T15:26:52;99661.63;;;15.92;59.28
12594;BME280;6362;50.208;9.182;2022-12-31T15:29:35;99660.06;;;15.86;58.91
12594;BME280;6362;50.208;9.182;2022-12-31T15:32:06;99666.31;;;15.82;59.10
12594;BME280;6362;50.208;9.182;2022-12-31T15:34:39;99656.72;;;16.07;58.00
12594;BME280;6362;50.208;9.182;2022-12-31T15:37:27;99661.19;;;16.04;57.51
12594;BME280;6362;50.208;9.182;2022-12-31T15:40:19;99663.19;;;15.97;57.97
12594;BME280;6362;50.208;9.182;2022-12-31T15:42:54;99649.91;;;16.02;57.58
12594;BME280;6362;50.208;9.182;2022-12-31T15:45:26;99663.44;;;15.90;58.22
12594;BME280;6362;50.208;9.182;2022-12-31T15:47:57;99665.09;;;15.92;58.13
12594;BME280;6362;50.208;9.182;2022-12-31T15:50:24;99669.59;;;15.89;58.31
12594;BME280;6362;50.208;9.182;2022-12-31T15:52:58;99666.06;;;15.90;58.07
12594;BME280;6362;50.208;9.182;2022-12-31T15:58:03;99665.81;;;15.71;58.43
12594;BME280;6362;50.208;9.182;2022-12-31T16:01:02;99670.38;;;15.66;58.64
12594;BME280;6362;50.208;9.182;2022-12-31T16:03:34;99665.16;;;15.64;59.03
12594;BME280;6362;50.208;9.182;2022-12-31T16:06:02;99667.84;;;15.61;58.95
12594;BME280;6362;50.208;9.182;2022-12-31T16:08:31;99673.47;;;15.49;59.37
12594;BME280;6362;50.208;9.182;2022-12-31T16:10:58;99676.34;;;15.41;59.49
12594;BME280;6362;50.208;9.182;2022-12-31T16:13:25;99676.91;;;15.23;60.12
12594;BME280;6362;50.208;9.182;2022-12-31T16:16:04;99684.72;;;15.24;60.05
12594;BME280;6362;50.208;9.182;2022-12-31T16:18:41;99667.31;;;15.23;60.03
12594;BME280;6362;50.208;9.182;2022-12-31T16:23:54;99680.66;;;15.16;60.34
12594;BME280;6362;50.208;9.182;2022-12-31T16:26:23;99682.84;;;15.00;60.69
12594;BME280;6362;50.208;9.182;2022-12-31T16:28:49;99691.94;;;14.88;61.05
12594;BME280;6362;50.208;9.182;2022-12-31T16:31:17;99683.66;;;14.72;61.67
12594;BME280;6362;50.208;9.182;2022-12-31T16:33:44;99682.16;;;14.64;62.27
12594;BME280;6362;50.208;9.182;2022-12-31T16:36:19;99679.09;;;14.46;62.91
12594;BME280;6362;50.208;9.182;2022-12-31T16:38:45;99673.72;;;14.52;62.79
12594;BME280;6362;50.208;9.182;2022-12-31T16:41:14;99688.53;;;14.53;62.96
12594;BME280;6362;50.208;9.182;2022-12-31T16:43:41;99686.34;;;14.37;63.38
12594;BME280;6362;50.208;9.182;2022-12-31T16:46:09;99677.91;;;14.27;64.00
12594;BME280;6362;50.208;9.182;2022-12-31T16:48:35;99682.09;;;14.65;63.07
12594;BME280;6362;50.208;9.182;2022-12-31T16:51:02;99681.97;;;14.70;63.03
12594;BME280;6362;50.208;9.182;2022-12-31T16:53:29;99682.69;;;14.75;62.28
12594;BME280;6362;50.208;9.182;2022-12-31T16:56:05;99687.31;;;14.96;61.04
12594;BME280;6362;50.208;9.182;2022-12-31T16:58:36;99688.81;;;15.05;61.17
12594;BME280;6362;50.208;9.182;2022-12-31T17:01:19;99683.66;;;15.02;61.51
12594;BME280;6362;50.208;9.182;2022-12-31T17:03:51;99684.69;;;14.96;61.52
12594;BME280;6362;50.208;9.182;2022-12-31T17:06:19;99688.97;;;14.99;61.40
12594;BME280;6362;50.208;9.182;2022-12-31T17:13:59;99693.00;;;14.50;63.18
12594;BME280;6362;50.208;9.182;2022-12-31T17:16:25;99694.06;;;14.74;62.25
12594;BME280;6362;50.208;9.182;2022-12-31T17:18:51;99703.88;;;14.67;62.70
12594;BME280;6362;50.208;9.182;2022-12-31T17:21:17;99694.16;;;14.71;62.51
12594;BME280;6362;50.208;9.182;2022-12-31T17:23:52;99703.91;;;14.66;62.32
12594;BME280;6362;50.208;9.182;2022-12-31T17:26:30;99691.47;;;14.74;61.95
12594;BME280;6362;50.208;9.182;2022-12-31T17:28:58;99699.06;;;14.83;61.46
12594;BME280;6362;50.208;9.182;2022-12-31T17:31:37;99704.19;;;14.86;61.12
12594;BME280;6362;50.208;9.182;2022-12-31T17:34:33;99693.09;;;15.08;60.13
12594;BME280;6362;50.208;9.182;2022-12-31T17:39:45;99706.25;;;15.06;59.49
12594;BME280;6362;50.208;9.182;2022-12-31T17:42:11;99705.16;;;15.13;59.15
12594;BME280;6362;50.208;9.182;2022-12-31T17:44:40;99699.91;;;15.13;59.53
12594;BME280;6362;50.208;9.182;2022-12-31T17:47:08;99702.03;;;15.00;59.73
12594;BME280;6362;50.208;9.182;2022-12-31T17:49:35;99696.84;;;14.99;59.32
12594;BME280;6362;50.208;9.182;2022-12-31T17:52:01;99705.81;;;14.90;59.81
12594;BME280;6362;50.208;9.182;2022-12-31T17:54:26;99701.13;;;15.01;59.48
12594;BME280;6362;50.208;9.182;2022-12-31T17:56:52;99701.94;;;15.03;59.04
12594;BME280;6362;50.208;9.182;2022-12-31T17:59:21;99697.47;;;15.07;59.01
12594;BME280;6362;50.208;9.182;2022-12-31T18:01:47;99699.84;;;15.15;58.81
12594;BME280;6362;50.208;9.182;2022-12-31T18:04:15;99695.72;;;15.08;58.87
12594;BME280;6362;50.208;9.182;2022-12-31T18:06:42;99700.16;;;15.05;59.00
12594;BME280;6362;50.208;9.182;2022-12-31T18:09:08;99701.41;;;14.92;59.50